sensor_id;sensor_type;location;lat;lon;timestamp;temperature;humidity
52575;DHT22;38468;48.114;-1.684;2023-11-19T00:01:42;15.40;87.40
52575;DHT22;38468;48.114;-1.684;2023-11-19T00:03:42;15.40;87.40
52575;DHT22;38468;48.114;-1.684;2023-11-19T00:05:44;15.40;87.40
52575;DHT22;38468;48.114;-1.684;2023-11-19T00:07:45;15.40;87.50
52575;DHT22;38468;48.114;-1.684;2023-11-19T00:09:47;15.50;87.40
52575;DHT22;38468;48.114;-1.684;2023-11-19T00:11:48;15.50;87.40
52575;DHT22;38468;48.114;-1.684;2023-11-19T00:13:49;15.50;87.40
52575;DHT22;38468;48.114;-1.684;2023-11-19T00:15:49;15.50;87.30
52575;DHT22;38468;48.114;-1.684;2023-11-19T00:17:50;15.40;87.30
52575;DHT22;38468;48.114;-1.684;2023-11-19T00:19:51;15.40;87.20
52575;DHT22;38468;48.114;-1.684;2023-11-19T00:21:52;15.40;87.20
52575;DHT22;38468;48.114;-1.684;2023-11-19T00:23:56;15.30;87.20
52575;DHT22;38468;48.114;-1.684;2023-11-19T00:25:59;15.20;87.20
52575;DHT22;38468;48.114;-1.684;2023-11-19T00:28:00;15.20;87.20
52575;DHT22;38468;48.114;-1.684;2023-11-19T00:30:01;15.30;87.30
52575;DHT22;38468;48.114;-1.684;2023-11-19T00:32:03;15.20;87.30
52575;DHT22;38468;48.114;-1.684;2023-11-19T00:34:06;15.20;87.20
52575;DHT22;38468;48.114;-1.684;2023-11-19T00:36:08;15.20;87.20
52575;DHT22;38468;48.114;-1.684;2023-11-19T00:38:08;15.20;87.20
52575;DHT22;38468;48.114;-1.684;2023-11-19T00:40:10;15.30;87.10
52575;DHT22;38468;48.114;-1.684;2023-11-19T00:42:12;15.20;87.10
52575;DHT22;38468;48.114;-1.684;2023-11-19T00:44:13;15.20;87.00
52575;DHT22;38468;48.114;-1.684;2023-11-19T00:46:16;15.10;86.90
52575;DHT22;38468;48.114;-1.684;2023-11-19T00:48:18;15.10;87.00
52575;DHT22;38468;48.114;-1.684;2023-11-19T00:50:19;15.10;86.80
52575;DHT22;38468;48.114;-1.684;2023-11-19T00:52:19;15.00;86.90
52575;DHT22;38468;48.114;-1.684;2023-11-19T00:54:23;15.00;86.90
52575;DHT22;38468;48.114;-1.684;2023-11-19T00:56:29;15.00;86.90
52575;DHT22;38468;48.114;-1.684;2023-11-19T00:58:30;15.00;86.80
52575;DHT22;38468;48.114;-1.684;2023-11-19T01:00:33;15.00;86.80
52575;DHT22;38468;48.114;-1.684;2023-11-19T01:02:35;15.00;86.80
52575;DHT22;38468;48.114;-1.684;2023-11-19T01:04:42;15.00;86.70
52575;DHT22;38468;48.114;-1.684;2023-11-19T01:06:43;14.90;86.80
52575;DHT22;38468;48.114;-1.684;2023-11-19T01:08:45;14.90;86.80
52575;DHT22;38468;48.114;-1.684;2023-11-19T01:10:46;15.00;86.80
52575;DHT22;38468;48.114;-1.684;2023-11-19T01:12:47;15.00;86.80
52575;DHT22;38468;48.114;-1.684;2023-11-19T01:14:51;15.00;86.80
52575;DHT22;38468;48.114;-1.684;2023-11-19T01:16:52;14.90;86.70
52575;DHT22;38468;48.114;-1.684;2023-11-19T01:18:55;14.90;86.80
52575;DHT22;38468;48.114;-1.684;2023-11-19T01:20:56;15.00;86.80
52575;DHT22;38468;48.114;-1.684;2023-11-19T01:22:57;15.00;86.80
52575;DHT22;38468;48.114;-1.684;2023-11-19T01:24:58;15.00;86.90
52575;DHT22;38468;48.114;-1.684;2023-11-19T01:26:59;15.00;86.80
52575;DHT22;38468;48.114;-1.684;2023-11-19T01:29:00;14.90;86.90
52575;DHT22;38468;48.114;-1.684;2023-11-19T01:31:01;15.00;86.90
52575;DHT22;38468;48.114;-1.684;2023-11-19T01:33:04;15.00;86.90
52575;DHT22;38468;48.114;-1.684;2023-11-19T01:35:04;15.00;86.80
52575;DHT22;38468;48.114;-1.684;2023-11-19T01:37:05;15.00;86.80
52575;DHT22;38468;48.114;-1.684;2023-11-19T01:39:06;15.00;86.80
52575;DHT22;38468;48.114;-1.684;2023-11-19T01:41:07;14.90;86.80
52575;DHT22;38468;48.114;-1.684;2023-11-19T01:43:08;14.90;86.60
52575;DHT22;38468;48.114;-1.684;2023-11-19T01:45:21;14.90;86.60
52575;DHT22;38468;48.114;-1.684;2023-11-19T01:47:22;14.80;86.50
52575;DHT22;38468;48.114;-1.684;2023-11-19T01:49:23;14.80;86.50
52575;DHT22;38468;48.114;-1.684;2023-11-19T01:51:26;14.90;86.60
52575;DHT22;38468;48.114;-1.684;2023-11-19T01:53:31;14.80;86.40
52575;DHT22;38468;48.114;-1.684;2023-11-19T01:55:33;14.80;86.50
52575;DHT22;38468;48.114;-1.684;2023-11-19T01:57:34;14.80;86.50
52575;DHT22;38468;48.114;-1.684;2023-11-19T01:59:38;14.80;86.50
52575;DHT22;38468;48.114;-1.684;2023-11-19T02:01:39;14.80;86.50
52575;DHT22;38468;48.114;-1.684;2023-11-19T02:03:40;14.80;86.50
52575;DHT22;38468;48.114;-1.684;2023-11-19T02:05:42;14.80;86.50
52575;DHT22;38468;48.114;-1.684;2023-11-19T02:07:43;14.70;86.40
52575;DHT22;38468;48.114;-1.684;2023-11-19T02:09:47;14.70;86.40
52575;DHT22;38468;48.114;-1.684;2023-11-19T02:11:48;14.70;86.40
52575;DHT22;38468;48.114;-1.684;2023-11-19T02:13:51;14.70;86.40
52575;DHT22;38468;48.114;-1.684;2023-11-19T02:15:52;14.70;86.40
52575;DHT22;38468;48.114;-1.684;2023-11-19T02:17:54;14.70;86.30
52575;DHT22;38468;48.114;-1.684;2023-11-19T02:19:54;14.70;86.30
52575;DHT22;38468;48.114;-1.684;2023-11-19T02:21:58;14.70;86.30
52575;DHT22;38468;48.114;-1.684;2023-11-19T02:24:00;14.60;86.10
52575;DHT22;38468;48.114;-1.684;2023-11-19T02:26:13;14.50;86.20
52575;DHT22;38468;48.114;-1.684;2023-11-19T02:28:15;14.50;86.20
52575;DHT22;38468;48.114;-1.684;2023-11-19T02:30:20;14.50;86.20
52575;DHT22;38468;48.114;-1.684;2023-11-19T02:32:21;14.40;86.20
52575;DHT22;38468;48.114;-1.684;2023-11-19T02:34:23;14.40;86.20
52575;DHT22;38468;48.114;-1.684;2023-11-19T02:36:24;14.40;86.20
52575;DHT22;38468;48.114;-1.684;2023-11-19T02:38:25;14.40;86.20
52575;DHT22;38468;48.114;-1.684;2023-11-19T02:40:26;14.40;86.30
52575;DHT22;38468;48.114;-1.684;2023-11-19T02:42:27;14.40;86.30
52575;DHT22;38468;48.114;-1.684;2023-11-19T02:44:29;14.40;86.30
52575;DHT22;38468;48.114;-1.684;2023-11-19T02:46:32;14.40;86.20
52575;DHT22;38468;48.114;-1.684;2023-11-19T02:48:36;14.40;86.20
52575;DHT22;38468;48.114;-1.684;2023-11-19T02:50:37;14.40;86.20
52575;DHT22;38468;48.114;-1.684;2023-11-19T02:52:42;14.30;86.20
52575;DHT22;38468;48.114;-1.684;2023-11-19T02:54:43;14.30;86.10
52575;DHT22;38468;48.114;-1.684;2023-11-19T02:56:44;14.30;86.10
52575;DHT22;38468;48.114;-1.684;2023-11-19T02:58:51;14.30;86.10
52575;DHT22;38468;48.114;-1.684;2023-11-19T03:00:55;14.20;86.10
52575;DHT22;38468;48.114;-1.684;2023-11-19T03:03:01;14.20;86.20
52575;DHT22;38468;48.114;-1.684;2023-11-19T03:05:21;14.20;86.20
52575;DHT22;38468;48.114;-1.684;2023-11-19T03:07:22;14.20;86.10
52575;DHT22;38468;48.114;-1.684;2023-11-19T03:09:23;14.20;86.00
52575;DHT22;38468;48.114;-1.684;2023-11-19T03:11:25;14.20;86.00
52575;DHT22;38468;48.114;-1.684;2023-11-19T03:13:26;14.20;86.00
52575;DHT22;38468;48.114;-1.684;2023-11-19T03:15:27;14.10;85.90
52575;DHT22;38468;48.114;-1.684;2023-11-19T03:17:28;14.00;85.90
52575;DHT22;38468;48.114;-1.684;2023-11-19T03:19:29;14.00;85.90
52575;DHT22;38468;48.114;-1.684;2023-11-19T03:21:33;14.00;85.80
52575;DHT22;38468;48.114;-1.684;2023-11-19T03:23:34;14.00;85.80
52575;DHT22;38468;48.114;-1.684;2023-11-19T03:25:36;14.00;85.90
52575;DHT22;38468;48.114;-1.684;2023-11-19T03:27:38;14.00;86.00
52575;DHT22;38468;48.114;-1.684;2023-11-19T03:29:39;14.00;85.90
52575;DHT22;38468;48.114;-1.684;2023-11-19T03:31:43;14.00;86.00
52575;DHT22;38468;48.114;-1.684;2023-11-19T03:33:45;14.00;86.00
52575;DHT22;38468;48.114;-1.684;2023-11-19T03:35:47;14.00;85.90
52575;DHT22;38468;48.114;-1.684;2023-11-19T03:37:47;14.00;85.90
52575;DHT22;38468;48.114;-1.684;2023-11-19T03:39:48;14.00;85.90
52575;DHT22;38468;48.114;-1.684;2023-11-19T03:41:49;14.00;85.90
52575;DHT22;38468;48.114;-1.684;2023-11-19T03:43:50;14.00;85.90
52575;DHT22;38468;48.114;-1.684;2023-11-19T03:45:51;14.00;85.90
52575;DHT22;38468;48.114;-1.684;2023-11-19T03:47:52;14.00;85.80
52575;DHT22;38468;48.114;-1.684;2023-11-19T03:49:53;14.00;85.80
52575;DHT22;38468;48.114;-1.684;2023-11-19T03:51:54;13.90;85.70
52575;DHT22;38468;48.114;-1.684;2023-11-19T03:53:55;13.90;85.70
52575;DHT22;38468;48.114;-1.684;2023-11-19T03:55:56;13.90;85.80
52575;DHT22;38468;48.114;-1.684;2023-11-19T03:57:57;13.80;85.70
52575;DHT22;38468;48.114;-1.684;2023-11-19T04:00:00;13.80;85.70
52575;DHT22;38468;48.114;-1.684;2023-11-19T04:02:08;13.70;85.70
52575;DHT22;38468;48.114;-1.684;2023-11-19T04:04:09;13.70;85.70
52575;DHT22;38468;48.114;-1.684;2023-11-19T04:06:10;13.60;85.70
52575;DHT22;38468;48.114;-1.684;2023-11-19T04:08:11;13.60;85.70
52575;DHT22;38468;48.114;-1.684;2023-11-19T04:10:11;13.50;85.70
52575;DHT22;38468;48.114;-1.684;2023-11-19T04:12:12;13.50;85.70
52575;DHT22;38468;48.114;-1.684;2023-11-19T04:14:13;13.60;85.80
52575;DHT22;38468;48.114;-1.684;2023-11-19T04:16:14;13.50;85.70
52575;DHT22;38468;48.114;-1.684;2023-11-19T04:18:15;13.50;85.70
52575;DHT22;38468;48.114;-1.684;2023-11-19T04:20:16;13.50;85.80
52575;DHT22;38468;48.114;-1.684;2023-11-19T04:22:17;13.50;85.80
52575;DHT22;38468;48.114;-1.684;2023-11-19T04:24:17;13.50;85.70
52575;DHT22;38468;48.114;-1.684;2023-11-19T04:26:18;13.50;85.80
52575;DHT22;38468;48.114;-1.684;2023-11-19T04:28:18;13.50;85.80
52575;DHT22;38468;48.114;-1.684;2023-11-19T04:30:19;13.50;85.70
52575;DHT22;38468;48.114;-1.684;2023-11-19T04:32:20;13.50;85.80
52575;DHT22;38468;48.114;-1.684;2023-11-19T04:34:21;13.50;85.80
52575;DHT22;38468;48.114;-1.684;2023-11-19T04:36:22;13.50;85.80
52575;DHT22;38468;48.114;-1.684;2023-11-19T04:38:25;13.50;85.80
52575;DHT22;38468;48.114;-1.684;2023-11-19T04:40:27;13.60;85.80
52575;DHT22;38468;48.114;-1.684;2023-11-19T04:42:27;13.60;85.70
52575;DHT22;38468;48.114;-1.684;2023-11-19T04:44:28;13.60;85.70
52575;DHT22;38468;48.114;-1.684;2023-11-19T04:46:29;13.60;85.70
52575;DHT22;38468;48.114;-1.684;2023-11-19T04:48:30;13.60;85.70
52575;DHT22;38468;48.114;-1.684;2023-11-19T04:50:31;13.50;85.60
52575;DHT22;38468;48.114;-1.684;2023-11-19T04:52:31;13.50;85.60
52575;DHT22;38468;48.114;-1.684;2023-11-19T04:54:32;13.50;85.70
52575;DHT22;38468;48.114;-1.684;2023-11-19T04:56:33;13.50;85.70
52575;DHT22;38468;48.114;-1.684;2023-11-19T04:58:33;13.50;85.70
52575;DHT22;38468;48.114;-1.684;2023-11-19T05:00:34;13.40;85.70
52575;DHT22;38468;48.114;-1.684;2023-11-19T05:02:35;13.50;85.70
52575;DHT22;38468;48.114;-1.684;2023-11-19T05:04:35;13.50;85.70
52575;DHT22;38468;48.114;-1.684;2023-11-19T05:06:37;13.50;85.70
52575;DHT22;38468;48.114;-1.684;2023-11-19T05:08:38;13.50;85.70
52575;DHT22;38468;48.114;-1.684;2023-11-19T05:10:38;13.50;85.70
52575;DHT22;38468;48.114;-1.684;2023-11-19T05:12:39;13.50;85.60
52575;DHT22;38468;48.114;-1.684;2023-11-19T05:14:39;13.50;85.70
52575;DHT22;38468;48.114;-1.684;2023-11-19T05:16:40;13.50;85.60
52575;DHT22;38468;48.114;-1.684;2023-11-19T05:18:41;13.50;85.60
52575;DHT22;38468;48.114;-1.684;2023-11-19T05:20:42;13.50;85.60
52575;DHT22;38468;48.114;-1.684;2023-11-19T05:22:43;13.60;85.60
52575;DHT22;38468;48.114;-1.684;2023-11-19T05:24:43;13.60;85.60
52575;DHT22;38468;48.114;-1.684;2023-11-19T05:26:44;13.60;85.60
52575;DHT22;38468;48.114;-1.684;2023-11-19T05:28:45;13.60;85.50
52575;DHT22;38468;48.114;-1.684;2023-11-19T05:30:46;13.60;85.60
52575;DHT22;38468;48.114;-1.684;2023-11-19T05:32:46;13.70;85.60
52575;DHT22;38468;48.114;-1.684;2023-11-19T05:34:47;13.70;85.60
52575;DHT22;38468;48.114;-1.684;2023-11-19T05:36:48;13.70;85.60
52575;DHT22;38468;48.114;-1.684;2023-11-19T05:38:48;13.70;85.60
52575;DHT22;38468;48.114;-1.684;2023-11-19T05:40:49;13.70;85.60
52575;DHT22;38468;48.114;-1.684;2023-11-19T05:42:49;13.70;85.60
52575;DHT22;38468;48.114;-1.684;2023-11-19T05:44:50;13.70;85.50
52575;DHT22;38468;48.114;-1.684;2023-11-19T05:46:51;13.70;85.60
52575;DHT22;38468;48.114;-1.684;2023-11-19T05:48:51;13.70;85.50
52575;DHT22;38468;48.114;-1.684;2023-11-19T05:50:52;13.70;85.50
52575;DHT22;38468;48.114;-1.684;2023-11-19T05:52:53;13.60;85.40
52575;DHT22;38468;48.114;-1.684;2023-11-19T05:54:54;13.60;85.40
52575;DHT22;38468;48.114;-1.684;2023-11-19T05:56:55;13.60;85.50
52575;DHT22;38468;48.114;-1.684;2023-11-19T05:58:55;13.60;85.50
52575;DHT22;38468;48.114;-1.684;2023-11-19T06:00:56;13.60;85.50
52575;DHT22;38468;48.114;-1.684;2023-11-19T06:02:57;13.60;85.40
52575;DHT22;38468;48.114;-1.684;2023-11-19T06:04:58;13.60;85.40
52575;DHT22;38468;48.114;-1.684;2023-11-19T06:06:58;13.50;85.40
52575;DHT22;38468;48.114;-1.684;2023-11-19T06:08:59;13.50;85.50
52575;DHT22;38468;48.114;-1.684;2023-11-19T06:11:00;13.50;85.40
52575;DHT22;38468;48.114;-1.684;2023-11-19T06:13:01;13.60;85.50
52575;DHT22;38468;48.114;-1.684;2023-11-19T06:15:05;13.50;85.50
52575;DHT22;38468;48.114;-1.684;2023-11-19T06:17:06;13.50;85.50
52575;DHT22;38468;48.114;-1.684;2023-11-19T06:19:08;13.50;85.50
52575;DHT22;38468;48.114;-1.684;2023-11-19T06:21:11;13.50;85.40
52575;DHT22;38468;48.114;-1.684;2023-11-19T06:23:11;13.40;85.50
52575;DHT22;38468;48.114;-1.684;2023-11-19T06:25:13;13.40;85.50
52575;DHT22;38468;48.114;-1.684;2023-11-19T06:27:15;13.30;85.50
52575;DHT22;38468;48.114;-1.684;2023-11-19T06:29:15;13.40;85.60
52575;DHT22;38468;48.114;-1.684;2023-11-19T06:31:19;13.40;85.70
52575;DHT22;38468;48.114;-1.684;2023-11-19T06:33:20;13.40;85.60
52575;DHT22;38468;48.114;-1.684;2023-11-19T06:35:21;13.40;85.60
52575;DHT22;38468;48.114;-1.684;2023-11-19T06:37:22;13.40;85.60
52575;DHT22;38468;48.114;-1.684;2023-11-19T06:39:22;13.40;85.60
52575;DHT22;38468;48.114;-1.684;2023-11-19T06:41:23;13.30;85.60
52575;DHT22;38468;48.114;-1.684;2023-11-19T06:43:23;13.20;85.50
52575;DHT22;38468;48.114;-1.684;2023-11-19T06:45:24;13.20;85.60
52575;DHT22;38468;48.114;-1.684;2023-11-19T06:47:28;13.20;85.60
52575;DHT22;38468;48.114;-1.684;2023-11-19T06:49:28;13.20;85.70
52575;DHT22;38468;48.114;-1.684;2023-11-19T06:51:29;13.20;85.70
52575;DHT22;38468;48.114;-1.684;2023-11-19T06:53:30;13.20;85.70
52575;DHT22;38468;48.114;-1.684;2023-11-19T06:55:30;13.20;85.70
52575;DHT22;38468;48.114;-1.684;2023-11-19T06:57:32;13.20;85.60
52575;DHT22;38468;48.114;-1.684;2023-11-19T06:59:32;13.10;85.60
52575;DHT22;38468;48.114;-1.684;2023-11-19T07:01:36;13.10;85.60
52575;DHT22;38468;48.114;-1.684;2023-11-19T07:03:37;13.10;85.60
52575;DHT22;38468;48.114;-1.684;2023-11-19T07:05:38;13.00;85.60
52575;DHT22;38468;48.114;-1.684;2023-11-19T07:07:38;13.10;85.60
52575;DHT22;38468;48.114;-1.684;2023-11-19T07:09:40;13.00;85.60
52575;DHT22;38468;48.114;-1.684;2023-11-19T07:11:41;13.00;85.60
52575;DHT22;38468;48.114;-1.684;2023-11-19T07:13:42;13.10;85.70
52575;DHT22;38468;48.114;-1.684;2023-11-19T07:15:43;13.10;85.60
52575;DHT22;38468;48.114;-1.684;2023-11-19T07:17:44;13.00;85.60
52575;DHT22;38468;48.114;-1.684;2023-11-19T07:19:45;13.00;85.60
52575;DHT22;38468;48.114;-1.684;2023-11-19T07:21:46;13.00;85.70
52575;DHT22;38468;48.114;-1.684;2023-11-19T07:23:47;13.10;85.60
52575;DHT22;38468;48.114;-1.684;2023-11-19T07:25:47;13.00;85.60
52575;DHT22;38468;48.114;-1.684;2023-11-19T07:27:51;13.00;85.60
52575;DHT22;38468;48.114;-1.684;2023-11-19T07:29:53;13.00;85.70
52575;DHT22;38468;48.114;-1.684;2023-11-19T07:31:53;13.00;85.70
52575;DHT22;38468;48.114;-1.684;2023-11-19T07:33:54;12.90;85.70
52575;DHT22;38468;48.114;-1.684;2023-11-19T07:35:55;12.90;85.70
52575;DHT22;38468;48.114;-1.684;2023-11-19T07:37:57;13.00;85.70
52575;DHT22;38468;48.114;-1.684;2023-11-19T07:39:58;12.90;85.70
52575;DHT22;38468;48.114;-1.684;2023-11-19T07:41:58;12.90;85.70
52575;DHT22;38468;48.114;-1.684;2023-11-19T07:43:59;12.90;85.80
52575;DHT22;38468;48.114;-1.684;2023-11-19T07:45:59;12.90;85.80
52575;DHT22;38468;48.114;-1.684;2023-11-19T07:48:00;13.00;85.80
52575;DHT22;38468;48.114;-1.684;2023-11-19T07:50:01;12.90;85.80
52575;DHT22;38468;48.114;-1.684;2023-11-19T07:52:02;13.00;85.80
52575;DHT22;38468;48.114;-1.684;2023-11-19T07:54:03;13.00;85.90
52575;DHT22;38468;48.114;-1.684;2023-11-19T07:56:04;13.00;85.90
52575;DHT22;38468;48.114;-1.684;2023-11-19T07:58:05;13.00;85.90
52575;DHT22;38468;48.114;-1.684;2023-11-19T08:00:06;13.00;85.90
52575;DHT22;38468;48.114;-1.684;2023-11-19T08:02:07;13.00;85.90
52575;DHT22;38468;48.114;-1.684;2023-11-19T08:04:08;13.10;86.00
52575;DHT22;38468;48.114;-1.684;2023-11-19T08:06:09;13.10;86.00
52575;DHT22;38468;48.114;-1.684;2023-11-19T08:08:09;13.20;86.00
52575;DHT22;38468;48.114;-1.684;2023-11-19T08:10:10;13.20;86.00
52575;DHT22;38468;48.114;-1.684;2023-11-19T08:12:11;13.20;86.00
52575;DHT22;38468;48.114;-1.684;2023-11-19T08:14:14;13.20;86.00
52575;DHT22;38468;48.114;-1.684;2023-11-19T08:16:15;13.20;86.00
52575;DHT22;38468;48.114;-1.684;2023-11-19T08:18:15;13.30;86.10
52575;DHT22;38468;48.114;-1.684;2023-11-19T08:20:16;13.30;86.10
52575;DHT22;38468;48.114;-1.684;2023-11-19T08:22:16;13.30;86.10
52575;DHT22;38468;48.114;-1.684;2023-11-19T08:24:17;13.40;86.10
52575;DHT22;38468;48.114;-1.684;2023-11-19T08:26:18;13.40;86.10
52575;DHT22;38468;48.114;-1.684;2023-11-19T08:28:19;13.40;86.00
52575;DHT22;38468;48.114;-1.684;2023-11-19T08:30:20;13.40;86.10
52575;DHT22;38468;48.114;-1.684;2023-11-19T08:32:20;13.50;86.00
52575;DHT22;38468;48.114;-1.684;2023-11-19T08:34:21;13.50;86.00
52575;DHT22;38468;48.114;-1.684;2023-11-19T08:36:22;13.50;86.00
52575;DHT22;38468;48.114;-1.684;2023-11-19T08:38:22;13.50;85.80
52575;DHT22;38468;48.114;-1.684;2023-11-19T08:40:23;13.40;85.60
52575;DHT22;38468;48.114;-1.684;2023-11-19T08:42:23;13.40;85.60
52575;DHT22;38468;48.114;-1.684;2023-11-19T08:44:24;13.50;85.90
52575;DHT22;38468;48.114;-1.684;2023-11-19T08:46:25;13.50;85.90
52575;DHT22;38468;48.114;-1.684;2023-11-19T08:48:26;13.70;86.00
52575;DHT22;38468;48.114;-1.684;2023-11-19T08:50:27;13.60;85.90
52575;DHT22;38468;48.114;-1.684;2023-11-19T08:52:27;13.90;86.30
52575;DHT22;38468;48.114;-1.684;2023-11-19T08:54:28;14.20;86.80
52575;DHT22;38468;48.114;-1.684;2023-11-19T08:56:29;14.40;86.50
52575;DHT22;38468;48.114;-1.684;2023-11-19T08:58:33;14.50;86.10
52575;DHT22;38468;48.114;-1.684;2023-11-19T09:00:33;14.50;85.30
52575;DHT22;38468;48.114;-1.684;2023-11-19T09:02:35;14.70;85.40
52575;DHT22;38468;48.114;-1.684;2023-11-19T09:04:37;14.90;85.70
52575;DHT22;38468;48.114;-1.684;2023-11-19T09:06:38;15.10;85.80
52575;DHT22;38468;48.114;-1.684;2023-11-19T09:08:38;15.20;84.70
52575;DHT22;38468;48.114;-1.684;2023-11-19T09:10:39;15.60;85.40
52575;DHT22;38468;48.114;-1.684;2023-11-19T09:12:39;16.10;85.90
52575;DHT22;38468;48.114;-1.684;2023-11-19T09:14:40;16.20;83.80
52575;DHT22;38468;48.114;-1.684;2023-11-19T09:16:42;16.50;84.20
52575;DHT22;38468;48.114;-1.684;2023-11-19T09:18:43;16.70;83.20
52575;DHT22;38468;48.114;-1.684;2023-11-19T09:20:44;16.80;82.40
52575;DHT22;38468;48.114;-1.684;2023-11-19T09:22:45;16.80;81.70
52575;DHT22;38468;48.114;-1.684;2023-11-19T09:24:46;17.10;82.40
52575;DHT22;38468;48.114;-1.684;2023-11-19T09:26:48;17.00;80.10
52575;DHT22;38468;48.114;-1.684;2023-11-19T09:28:49;17.40;81.90
52575;DHT22;38468;48.114;-1.684;2023-11-19T09:30:49;17.40;80.10
52575;DHT22;38468;48.114;-1.684;2023-11-19T09:32:50;17.70;81.40
52575;DHT22;38468;48.114;-1.684;2023-11-19T09:34:51;17.70;79.50
52575;DHT22;38468;48.114;-1.684;2023-11-19T09:36:51;17.90;79.90
52575;DHT22;38468;48.114;-1.684;2023-11-19T09:38:52;17.80;79.20
52575;DHT22;38468;48.114;-1.684;2023-11-19T09:40:52;17.60;78.30
52575;DHT22;38468;48.114;-1.684;2023-11-19T09:42:53;17.80;79.20
52575;DHT22;38468;48.114;-1.684;2023-11-19T09:44:56;17.70;78.60
52575;DHT22;38468;48.114;-1.684;2023-11-19T09:46:58;17.50;78.60
52575;DHT22;38468;48.114;-1.684;2023-11-19T09:49:00;17.40;77.50
52575;DHT22;38468;48.114;-1.684;2023-11-19T09:51:02;17.00;77.00
52575;DHT22;38468;48.114;-1.684;2023-11-19T09:53:03;17.00;78.60
52575;DHT22;38468;48.114;-1.684;2023-11-19T09:55:04;17.40;80.10
52575;DHT22;38468;48.114;-1.684;2023-11-19T09:57:06;17.90;80.90
52575;DHT22;38468;48.114;-1.684;2023-11-19T09:59:08;17.90;77.90
52575;DHT22;38468;48.114;-1.684;2023-11-19T10:01:10;18.00;77.80
52575;DHT22;38468;48.114;-1.684;2023-11-19T10:03:12;17.80;76.90
52575;DHT22;38468;48.114;-1.684;2023-11-19T10:05:14;17.50;76.60
52575;DHT22;38468;48.114;-1.684;2023-11-19T10:07:15;17.10;75.30
52575;DHT22;38468;48.114;-1.684;2023-11-19T10:09:15;16.80;75.40
52575;DHT22;38468;48.114;-1.684;2023-11-19T10:11:17;16.90;77.20
52575;DHT22;38468;48.114;-1.684;2023-11-19T10:13:18;17.00;77.20
52575;DHT22;38468;48.114;-1.684;2023-11-19T10:15:22;17.10;77.20
52575;DHT22;38468;48.114;-1.684;2023-11-19T10:17:42;17.20;76.30
52575;DHT22;38468;48.114;-1.684;2023-11-19T10:19:43;17.60;77.70
52575;DHT22;38468;48.114;-1.684;2023-11-19T10:21:45;17.70;76.40
52575;DHT22;38468;48.114;-1.684;2023-11-19T10:23:54;17.90;76.40
52575;DHT22;38468;48.114;-1.684;2023-11-19T10:26:03;17.70;74.40
52575;DHT22;38468;48.114;-1.684;2023-11-19T10:28:05;17.70;75.30
52575;DHT22;38468;48.114;-1.684;2023-11-19T10:30:06;17.60;73.90
52575;DHT22;38468;48.114;-1.684;2023-11-19T10:32:07;17.30;73.70
52575;DHT22;38468;48.114;-1.684;2023-11-19T10:34:24;17.10;72.80
52575;DHT22;38468;48.114;-1.684;2023-11-19T10:36:38;17.10;74.40
52575;DHT22;38468;48.114;-1.684;2023-11-19T10:38:55;17.40;75.60
52575;DHT22;38468;48.114;-1.684;2023-11-19T10:40:56;17.50;74.90
52575;DHT22;38468;48.114;-1.684;2023-11-19T10:43:03;17.50;73.80
52575;DHT22;38468;48.114;-1.684;2023-11-19T10:45:04;17.40;73.30
52575;DHT22;38468;48.114;-1.684;2023-11-19T10:47:06;17.50;73.70
52575;DHT22;38468;48.114;-1.684;2023-11-19T10:49:08;17.40;71.60
52575;DHT22;38468;48.114;-1.684;2023-11-19T10:51:09;17.30;73.60
52575;DHT22;38468;48.114;-1.684;2023-11-19T10:53:12;17.30;73.40
52575;DHT22;38468;48.114;-1.684;2023-11-19T10:55:21;17.40;73.20
52575;DHT22;38468;48.114;-1.684;2023-11-19T10:57:30;17.20;72.60
52575;DHT22;38468;48.114;-1.684;2023-11-19T10:59:33;17.40;73.50
52575;DHT22;38468;48.114;-1.684;2023-11-19T11:01:39;17.50;73.00
52575;DHT22;38468;48.114;-1.684;2023-11-19T11:03:44;17.50;73.00
52575;DHT22;38468;48.114;-1.684;2023-11-19T11:05:46;17.50;72.50
52575;DHT22;38468;48.114;-1.684;2023-11-19T11:07:49;17.50;72.30
52575;DHT22;38468;48.114;-1.684;2023-11-19T11:09:51;17.40;71.00
52575;DHT22;38468;48.114;-1.684;2023-11-19T11:11:52;17.30;71.90
52575;DHT22;38468;48.114;-1.684;2023-11-19T11:13:55;17.20;72.10
52575;DHT22;38468;48.114;-1.684;2023-11-19T11:15:57;17.30;72.80
52575;DHT22;38468;48.114;-1.684;2023-11-19T11:18:02;17.30;71.50
52575;DHT22;38468;48.114;-1.684;2023-11-19T11:20:04;17.30;72.40
52575;DHT22;38468;48.114;-1.684;2023-11-19T11:22:06;17.40;72.60
52575;DHT22;38468;48.114;-1.684;2023-11-19T11:31:53;17.10;72.30
52575;DHT22;38468;48.114;-1.684;2023-11-19T11:36:11;17.70;71.60
52575;DHT22;38468;48.114;-1.684;2023-11-19T11:38:15;17.70;70.80
52575;DHT22;38468;48.114;-1.684;2023-11-19T11:40:18;17.70;70.90
52575;DHT22;38468;48.114;-1.684;2023-11-19T11:44:57;17.50;70.00
52575;DHT22;38468;48.114;-1.684;2023-11-19T11:46:58;17.50;70.80
52575;DHT22;38468;48.114;-1.684;2023-11-19T11:49:08;17.50;70.90
52575;DHT22;38468;48.114;-1.684;2023-11-19T11:51:10;17.60;70.50
52575;DHT22;38468;48.114;-1.684;2023-11-19T11:53:17;17.70;70.50
52575;DHT22;38468;48.114;-1.684;2023-11-19T11:55:19;17.80;71.00
52575;DHT22;38468;48.114;-1.684;2023-11-19T11:57:36;18.00;70.30
52575;DHT22;38468;48.114;-1.684;2023-11-19T11:59:49;18.30;71.20
52575;DHT22;38468;48.114;-1.684;2023-11-19T12:01:59;18.50;70.60
52575;DHT22;38468;48.114;-1.684;2023-11-19T12:04:00;18.70;70.00
52575;DHT22;38468;48.114;-1.684;2023-11-19T12:06:00;18.50;66.70
52575;DHT22;38468;48.114;-1.684;2023-11-19T12:19:34;17.70;67.70
52575;DHT22;38468;48.114;-1.684;2023-11-19T12:21:35;17.70;67.60
52575;DHT22;38468;48.114;-1.684;2023-11-19T12:23:45;17.80;67.30
52575;DHT22;38468;48.114;-1.684;2023-11-19T12:25:48;17.80;67.00
52575;DHT22;38468;48.114;-1.684;2023-11-19T12:27:54;18.00;67.10
52575;DHT22;38468;48.114;-1.684;2023-11-19T12:29:54;18.00;63.30
52575;DHT22;38468;48.114;-1.684;2023-11-19T12:31:57;17.80;65.00
52575;DHT22;38468;48.114;-1.684;2023-11-19T12:34:06;18.10;66.60
52575;DHT22;38468;48.114;-1.684;2023-11-19T12:36:08;18.40;66.00
52575;DHT22;38468;48.114;-1.684;2023-11-19T12:38:39;18.70;63.70
52575;DHT22;38468;48.114;-1.684;2023-11-19T12:40:39;19.00;63.80
52575;DHT22;38468;48.114;-1.684;2023-11-19T12:42:40;19.10;61.70
52575;DHT22;38468;48.114;-1.684;2023-11-19T12:44:56;18.90;61.40
52575;DHT22;38468;48.114;-1.684;2023-11-19T12:47:07;18.80;59.90
52575;DHT22;38468;48.114;-1.684;2023-11-19T12:49:07;18.80;60.00
52575;DHT22;38468;48.114;-1.684;2023-11-19T12:51:11;19.00;63.20
52575;DHT22;38468;48.114;-1.684;2023-11-19T12:53:12;19.30;61.20
52575;DHT22;38468;48.114;-1.684;2023-11-19T12:55:30;19.40;61.20
52575;DHT22;38468;48.114;-1.684;2023-11-19T12:57:36;19.50;60.80
52575;DHT22;38468;48.114;-1.684;2023-11-19T12:59:37;19.80;61.80
52575;DHT22;38468;48.114;-1.684;2023-11-19T13:01:38;19.90;60.20
52575;DHT22;38468;48.114;-1.684;2023-11-19T13:03:39;20.00;61.50